sensor_id;sensor_type;location;lat;lon;timestamp;pressure;altitude;pressure_sealevel;temperature;humidity
72395;BME280;60384;48.152;11.614;2023-02-04T09:16:24;97171.09;;;5.54;74.36
72395;BME280;60384;48.152;11.614;2023-02-04T09:19:26;97170.47;;;5.68;74.61
72395;BME280;60384;48.152;11.614;2023-02-04T09:22:28;97168.50;;;5.80;74.65
72395;BME280;60384;48.152;11.614;2023-02-04T09:25:30;97180.16;;;5.79;74.71
72395;BME280;60384;48.152;11.614;2023-02-04T09:28:31;97175.38;;;5.81;74.91
72395;BME280;60384;48.152;11.614;2023-02-04T09:31:34;97181.09;;;5.90;74.62
72395;BME280;60384;48.152;11.614;2023-02-04T09:34:37;97184.03;;;5.94;74.84
72395;BME280;60384;48.152;11.614;2023-02-04T09:37:39;97182.19;;;5.94;74.80
72395;BME280;60384;48.152;11.614;2023-02-04T09:40:42;97189.84;;;5.91;74.85
72395;BME280;60384;48.152;11.614;2023-02-04T09:43:44;97197.16;;;5.83;74.94
72395;BME280;60384;48.152;11.614;2023-02-04T09:46:50;97199.50;;;5.80;74.76
72395;BME280;60384;48.152;11.614;2023-02-04T09:49:53;97208.50;;;5.79;74.81
72395;BME280;60384;48.152;11.614;2023-02-04T09:52:56;97211.69;;;5.81;74.87
72395;BME280;60384;48.152;11.614;2023-02-04T09:55:59;97212.22;;;5.78;74.81
72395;BME280;60384;48.152;11.614;2023-02-04T09:59:03;97215.38;;;5.75;74.83
72395;BME280;60384;48.152;11.614;2023-02-04T10:02:17;97232.63;;;5.77;74.97
72395;BME280;60384;48.152;11.614;2023-02-04T10:05:29;97217.81;;;5.81;74.84
72395;BME280;60384;48.152;11.614;2023-02-04T10:08:32;97213.38;;;5.87;74.95
72395;BME280;60384;48.152;11.614;2023-02-04T10:11:36;97221.91;;;5.89;74.69
72395;BME280;60384;48.152;11.614;2023-02-04T10:14:39;97229.88;;;5.89;74.51
72395;BME280;60384;48.152;11.614;2023-02-04T10:17:42;97237.59;;;5.91;74.38
72395;BME280;60384;48.152;11.614;2023-02-04T10:20:44;97246.81;;;5.88;74.83
72395;BME280;60384;48.152;11.614;2023-02-04T10:23:48;97245.13;;;5.82;75.06
72395;BME280;60384;48.152;11.614;2023-02-04T10:26:51;97247.41;;;5.73;75.03
72395;BME280;60384;48.152;11.614;2023-02-04T10:29:56;97243.84;;;5.63;75.34
72395;BME280;60384;48.152;11.614;2023-02-04T10:33:11;97252.94;;;5.50;74.93
72395;BME280;60384;48.152;11.614;2023-02-04T10:36:13;97258.91;;;5.40;75.19
72395;BME280;60384;48.152;11.614;2023-02-04T10:39:19;97246.13;;;5.37;75.24
72395;BME280;60384;48.152;11.614;2023-02-04T10:42:23;97241.59;;;5.33;74.68
72395;BME280;60384;48.152;11.614;2023-02-04T10:45:27;97234.91;;;5.30;74.43
72395;BME280;60384;48.152;11.614;2023-02-04T10:48:40;97244.16;;;5.28;74.71
72395;BME280;60384;48.152;11.614;2023-02-04T10:51:42;97240.94;;;5.26;74.74
72395;BME280;60384;48.152;11.614;2023-02-04T10:54:43;97247.84;;;5.27;75.14
72395;BME280;60384;48.152;11.614;2023-02-04T10:57:47;97248.09;;;5.25;75.20
72395;BME280;60384;48.152;11.614;2023-02-04T11:00:49;97254.75;;;5.28;74.50
72395;BME280;60384;48.152;11.614;2023-02-04T11:03:53;97246.38;;;5.36;74.24
72395;BME280;60384;48.152;11.614;2023-02-04T11:06:54;97252.94;;;5.50;74.15
72395;BME280;60384;48.152;11.614;2023-02-04T11:09:56;97239.47;;;5.73;73.71
72395;BME280;60384;48.152;11.614;2023-02-04T11:13:01;97254.53;;;6.38;72.28
72395;BME280;60384;48.152;11.614;2023-02-04T11:16:09;97239.72;;;8.05;68.13
72395;BME280;60384;48.152;11.614;2023-02-04T11:19:13;97230.44;;;10.34;63.35
72395;BME280;60384;48.152;11.614;2023-02-04T11:22:21;97235.09;;;8.93;66.88
72395;BME280;60384;48.152;11.614;2023-02-04T11:25:30;97245.50;;;7.92;69.55
72395;BME280;60384;48.152;11.614;2023-02-04T11:28:46;97236.00;;;7.44;71.51
72395;BME280;60384;48.152;11.614;2023-02-04T11:31:57;97235.75;;;7.09;72.15
72395;BME280;60384;48.152;11.614;2023-02-04T11:35:20;97229.19;;;6.84;73.19
72395;BME280;60384;48.152;11.614;2023-02-04T11:38:24;97236.25;;;6.69;72.95
72395;BME280;60384;48.152;11.614;2023-02-04T11:41:28;97234.31;;;6.59;73.18
72395;BME280;60384;48.152;11.614;2023-02-04T11:44:31;97232.97;;;6.61;72.95
72395;BME280;60384;48.152;11.614;2023-02-04T11:47:35;97230.03;;;6.90;72.85
72395;BME280;60384;48.152;11.614;2023-02-04T11:50:38;97223.31;;;7.14;71.62
72395;BME280;60384;48.152;11.614;2023-02-04T11:53:41;97224.56;;;7.06;71.66
72395;BME280;60384;48.152;11.614;2023-02-04T11:56:43;97239.69;;;7.01;72.45
72395;BME280;60384;48.152;11.614;2023-02-04T11:59:46;97239.56;;;6.86;72.98
72395;BME280;60384;48.152;11.614;2023-02-04T12:02:49;97242.09;;;6.71;73.17
72395;BME280;60384;48.152;11.614;2023-02-04T12:05:57;97235.34;;;6.58;73.27
72395;BME280;60384;48.152;11.614;2023-02-04T12:09:07;97237.66;;;6.49;73.62
72395;BME280;60384;48.152;11.614;2023-02-04T12:12:09;97230.41;;;6.40;73.28
72395;BME280;60384;48.152;11.614;2023-02-04T12:15:17;97241.78;;;6.35;73.22
72395;BME280;60384;48.152;11.614;2023-02-04T12:18:23;97247.94;;;6.41;73.30
72395;BME280;60384;48.152;11.614;2023-02-04T12:21:28;97248.16;;;6.39;73.19
72395;BME280;60384;48.152;11.614;2023-02-04T12:24:32;97251.88;;;6.38;73.25
72395;BME280;60384;48.152;11.614;2023-02-04T12:27:34;97245.47;;;6.34;73.25
72395;BME280;60384;48.152;11.614;2023-02-04T12:30:35;97235.63;;;6.30;74.21
72395;BME280;60384;48.152;11.614;2023-02-04T12:33:37;97231.88;;;6.26;73.65
72395;BME280;60384;48.152;11.614;2023-02-04T12:36:40;97235.63;;;6.30;73.49
72395;BME280;60384;48.152;11.614;2023-02-04T12:39:42;97250.25;;;6.32;74.19
72395;BME280;60384;48.152;11.614;2023-02-04T12:42:44;97248.88;;;6.30;73.88
72395;BME280;60384;48.152;11.614;2023-02-04T12:45:46;97239.81;;;6.26;73.85
72395;BME280;60384;48.152;11.614;2023-02-04T12:48:49;97243.22;;;6.21;73.82
72395;BME280;60384;48.152;11.614;2023-02-04T12:51:52;97241.63;;;6.20;73.78
72395;BME280;60384;48.152;11.614;2023-02-04T12:54:57;97232.59;;;6.21;73.79
72395;BME280;60384;48.152;11.614;2023-02-04T12:58:00;97223.34;;;6.23;73.81
72395;BME280;60384;48.152;11.614;2023-02-04T13:01:02;97223.75;;;6.37;73.56
72395;BME280;60384;48.152;11.614;2023-02-04T13:04:04;97224.09;;;6.46;73.24
72395;BME280;60384;48.152;11.614;2023-02-04T13:07:08;97220.38;;;6.47;73.46
72395;BME280;60384;48.152;11.614;2023-02-04T13:10:11;97224.09;;;6.46;73.75
72395;BME280;60384;48.152;11.614;2023-02-04T13:13:13;97224.84;;;6.41;73.30
72395;BME280;60384;48.152;11.614;2023-02-04T13:16:15;97228.00;;;6.38;74.24
72395;BME280;60384;48.152;11.614;2023-02-04T13:19:18;97233.81;;;6.35;73.83
72395;BME280;60384;48.152;11.614;2023-02-04T13:22:22;97233.53;;;6.32;74.05
72395;BME280;60384;48.152;11.614;2023-02-04T13:25:23;97233.72;;;6.25;73.47
72395;BME280;60384;48.152;11.614;2023-02-04T13:28:25;97240.81;;;6.19;73.86
72395;BME280;60384;48.152;11.614;2023-02-04T13:31:27;97248.47;;;6.16;73.86
72395;BME280;60384;48.152;11.614;2023-02-04T13:34:29;97251.63;;;6.13;73.92
72395;BME280;60384;48.152;11.614;2023-02-04T13:37:32;97247.56;;;6.05;74.06
72395;BME280;60384;48.152;11.614;2023-02-04T13:40:34;97253.84;;;5.99;73.78
72395;BME280;60384;48.152;11.614;2023-02-04T13:43:35;97257.25;;;5.95;74.10
72395;BME280;60384;48.152;11.614;2023-02-04T13:46:37;97269.41;;;5.91;74.08
72395;BME280;60384;48.152;11.614;2023-02-04T13:49:41;97261.44;;;5.91;74.20
72395;BME280;60384;48.152;11.614;2023-02-04T13:52:44;97270.22;;;5.91;73.90
72395;BME280;60384;48.152;11.614;2023-02-04T13:55:46;97279.50;;;5.94;73.85
72395;BME280;60384;48.152;11.614;2023-02-04T13:58:47;97281.84;;;5.90;74.00
72395;BME280;60384;48.152;11.614;2023-02-04T14:01:49;97288.22;;;5.89;73.69
72395;BME280;60384;48.152;11.614;2023-02-04T14:04:51;97279.91;;;5.86;73.94
72395;BME280;60384;48.152;11.614;2023-02-04T14:07:54;97292.31;;;5.80;73.84
72395;BME280;60384;48.152;11.614;2023-02-04T14:10:56;97297.84;;;5.78;73.82
72395;BME280;60384;48.152;11.614;2023-02-04T14:13:58;97299.47;;;5.79;73.97
72395;BME280;60384;48.152;11.614;2023-02-04T14:16:59;97309.81;;;5.81;73.83
72395;BME280;60384;48.152;11.614;2023-02-04T14:20:01;97314.06;;;5.82;73.91
72395;BME280;60384;48.152;11.614;2023-02-04T14:23:06;97308.75;;;5.82;73.77
72395;BME280;60384;48.152;11.614;2023-02-04T14:26:08;97312.44;;;5.81;73.81
72395;BME280;60384;48.152;11.614;2023-02-04T14:29:09;97318.09;;;5.85;73.98
72395;BME280;60384;48.152;11.614;2023-02-04T14:32:11;97316.63;;;5.94;73.66
72395;BME280;60384;48.152;11.614;2023-02-04T14:35:14;97306.66;;;6.01;73.34
72395;BME280;60384;48.152;11.614;2023-02-04T14:38:17;97303.56;;;6.09;73.55
72395;BME280;60384;48.152;11.614;2023-02-04T14:41:19;97312.63;;;6.13;73.42
72395;BME280;60384;48.152;11.614;2023-02-04T14:44:20;97310.78;;;6.13;73.71
72395;BME280;60384;48.152;11.614;2023-02-04T14:47:22;97321.16;;;6.15;73.75
72395;BME280;60384;48.152;11.614;2023-02-04T14:50:24;97322.22;;;6.14;73.42
72395;BME280;60384;48.152;11.614;2023-02-04T14:53:29;97325.91;;;6.13;73.63
72395;BME280;60384;48.152;11.614;2023-02-04T14:56:31;97321.06;;;6.10;73.26
72395;BME280;60384;48.152;11.614;2023-02-04T14:59:32;97326.66;;;6.08;73.26
72395;BME280;60384;48.152;11.614;2023-02-04T15:02:34;97321.59;;;6.07;73.44
72395;BME280;60384;48.152;11.614;2023-02-04T15:05:36;97327.13;;;6.05;73.51
72395;BME280;60384;48.152;11.614;2023-02-04T15:08:39;97319.69;;;6.02;73.32
72395;BME280;60384;48.152;11.614;2023-02-04T15:11:41;97329.72;;;6.00;73.76
72395;BME280;60384;48.152;11.614;2023-02-04T15:14:43;97329.41;;;5.97;73.31
72395;BME280;60384;48.152;11.614;2023-02-04T15:17:45;97335.75;;;5.96;73.54
72395;BME280;60384;48.152;11.614;2023-02-04T15:20:46;97331.19;;;5.91;73.47
72395;BME280;60384;48.152;11.614;2023-02-04T15:23:50;97332.72;;;5.87;73.47
72395;BME280;60384;48.152;11.614;2023-02-04T15:26:52;97337.94;;;5.82;73.71
72395;BME280;60384;48.152;11.614;2023-02-04T15:29:53;97340.50;;;5.77;73.93
72395;BME280;60384;48.152;11.614;2023-02-04T15:32:55;97350.81;;;5.73;73.93
72395;BME280;60384;48.152;11.614;2023-02-04T15:35:57;97360.03;;;5.71;74.04
72395;BME280;60384;48.152;11.614;2023-02-04T15:39:00;97360.53;;;5.68;74.08
72395;BME280;60384;48.152;11.614;2023-02-04T15:42:02;97356.53;;;5.65;73.92
72395;BME280;60384;48.152;11.614;2023-02-04T15:45:04;97358.63;;;5.63;73.90
72395;BME280;60384;48.152;11.614;2023-02-04T15:48:06;97357.03;;;5.62;73.91
72395;BME280;60384;48.152;11.614;2023-02-04T15:51:08;97359.34;;;5.59;73.83
72395;BME280;60384;48.152;11.614;2023-02-04T15:54:11;97366.97;;;5.55;74.13
72395;BME280;60384;48.152;11.614;2023-02-04T15:57:13;97380.72;;;5.52;74.12
72395;BME280;60384;48.152;11.614;2023-02-04T16:00:15;97369.56;;;5.50;73.98
72395;BME280;60384;48.152;11.614;2023-02-04T16:03:17;97370.28;;;5.46;74.06
72395;BME280;60384;48.152;11.614;2023-02-04T16:06:19;97380.53;;;5.42;74.02
72395;BME280;60384;48.152;11.614;2023-02-04T16:09:22;97378.31;;;5.34;74.09
72395;BME280;60384;48.152;11.614;2023-02-04T16:12:24;97379.72;;;5.25;74.47
72395;BME280;60384;48.152;11.614;2023-02-04T16:15:25;97374.03;;;5.16;74.09
72395;BME280;60384;48.152;11.614;2023-02-04T16:18:27;97377.41;;;5.12;74.46
72395;BME280;60384;48.152;11.614;2023-02-04T16:21:30;97380.28;;;5.10;73.86
72395;BME280;60384;48.152;11.614;2023-02-04T16:24:33;97387.44;;;5.10;73.85
72395;BME280;60384;48.152;11.614;2023-02-04T16:27:35;97392.97;;;5.08;73.83
72395;BME280;60384;48.152;11.614;2023-02-04T16:30:37;97387.94;;;5.07;74.30
72395;BME280;60384;48.152;11.614;2023-02-04T16:33:39;97395.06;;;5.06;74.05
72395;BME280;60384;48.152;11.614;2023-02-04T16:36:41;97400.38;;;5.06;74.48
72395;BME280;60384;48.152;11.614;2023-02-04T16:39:44;97410.97;;;5.06;74.39
72395;BME280;60384;48.152;11.614;2023-02-04T16:42:47;97413.34;;;5.08;73.82
72395;BME280;60384;48.152;11.614;2023-02-04T16:45:49;97421.56;;;5.06;73.97
72395;BME280;60384;48.152;11.614;2023-02-04T16:48:51;97414.41;;;5.07;74.06
72395;BME280;60384;48.152;11.614;2023-02-04T16:51:53;97426.84;;;5.06;74.19
72395;BME280;60384;48.152;11.614;2023-02-04T16:54:56;97424.44;;;5.05;74.03
72395;BME280;60384;48.152;11.614;2023-02-04T16:57:58;97423.63;;;5.04;73.84
72395;BME280;60384;48.152;11.614;2023-02-04T17:01:00;97429.94;;;5.03;74.25
72395;BME280;60384;48.152;11.614;2023-02-04T17:04:02;97434.69;;;5.01;74.55
72395;BME280;60384;48.152;11.614;2023-02-04T17:07:04;97430.44;;;5.00;74.20
72395;BME280;60384;48.152;11.614;2023-02-04T17:10:07;97435.75;;;5.00;74.42
72395;BME280;60384;48.152;11.614;2023-02-04T17:13:10;97446.56;;;4.98;74.32
72395;BME280;60384;48.152;11.614;2023-02-04T17:16:12;97447.59;;;4.97;74.25
72395;BME280;60384;48.152;11.614;2023-02-04T17:19:15;97450.72;;;4.94;74.26
72395;BME280;60384;48.152;11.614;2023-02-04T17:22:18;97438.97;;;4.90;74.07
72395;BME280;60384;48.152;11.614;2023-02-04T17:25:21;97449.25;;;4.87;74.02
72395;BME280;60384;48.152;11.614;2023-02-04T17:28:25;97457.09;;;4.82;74.69
72395;BME280;60384;48.152;11.614;2023-02-04T17:31:27;97458.34;;;4.79;73.79
72395;BME280;60384;48.152;11.614;2023-02-04T17:34:28;97463.31;;;4.76;74.41
72395;BME280;60384;48.152;11.614;2023-02-04T17:37:30;97458.75;;;4.71;74.01
72395;BME280;60384;48.152;11.614;2023-02-04T17:40:33;97463.47;;;4.69;74.32
72395;BME280;60384;48.152;11.614;2023-02-04T17:43:35;97463.69;;;4.68;74.14
72395;BME280;60384;48.152;11.614;2023-02-04T17:46:37;97458.66;;;4.66;74.35
72395;BME280;60384;48.152;11.614;2023-02-04T17:49:39;97457.03;;;4.65;74.57
72395;BME280;60384;48.152;11.614;2023-02-04T17:52:41;97461.75;;;4.63;74.69
72395;BME280;60384;48.152;11.614;2023-02-04T17:55:44;97464.63;;;4.62;74.00
72395;BME280;60384;48.152;11.614;2023-02-04T17:58:46;97475.47;;;4.60;74.61
72395;BME280;60384;48.152;11.614;2023-02-04T18:01:49;97480.16;;;4.58;73.70
72395;BME280;60384;48.152;11.614;2023-02-04T18:04:52;97483.84;;;4.57;74.04
72395;BME280;60384;48.152;11.614;2023-02-04T18:07:58;97480.41;;;4.56;73.79
72395;BME280;60384;48.152;11.614;2023-02-04T18:11:13;97475.34;;;4.55;74.33
72395;BME280;60384;48.152;11.614;2023-02-04T18:14:19;97480.53;;;4.50;74.44
72395;BME280;60384;48.152;11.614;2023-02-04T18:17:22;97474.91;;;4.46;73.96
72395;BME280;60384;48.152;11.614;2023-02-04T18:20:24;97476.75;;;4.46;73.94
72395;BME280;60384;48.152;11.614;2023-02-04T18:23:41;97471.94;;;4.43;74.35
72395;BME280;60384;48.152;11.614;2023-02-04T18:26:47;97475.03;;;4.40;74.17
72395;BME280;60384;48.152;11.614;2023-02-04T18:29:51;97476.31;;;4.37;74.65
72395;BME280;60384;48.152;11.614;2023-02-04T18:32:54;97473.88;;;4.36;73.96
72395;BME280;60384;48.152;11.614;2023-02-04T18:35:58;97471.94;;;4.31;74.29
72395;BME280;60384;48.152;11.614;2023-02-04T18:39:12;97473.19;;;4.29;74.57
72395;BME280;60384;48.152;11.614;2023-02-04T18:42:21;97467.56;;;4.25;73.82
72395;BME280;60384;48.152;11.614;2023-02-04T18:45:24;97484.47;;;4.24;73.89
72395;BME280;60384;48.152;11.614;2023-02-04T18:52:14;97468.16;;;4.15;73.92
72395;BME280;60384;48.152;11.614;2023-02-04T18:55:29;97479.19;;;4.12;73.59
72395;BME280;60384;48.152;11.614;2023-02-04T18:58:35;97476.44;;;4.07;74.24
72395;BME280;60384;48.152;11.614;2023-02-04T19:01:38;97484.81;;;4.04;74.20
72395;BME280;60384;48.152;11.614;2023-02-04T19:04:39;97486.31;;;4.00;73.92
72395;BME280;60384;48.152;11.614;2023-02-04T19:07:41;97485.16;;;3.96;73.74
72395;BME280;60384;48.152;11.614;2023-02-04T19:10:43;97493.78;;;3.92;73.77
72395;BME280;60384;48.152;11.614;2023-02-04T19:13:47;97490.78;;;3.88;73.80
72395;BME280;60384;48.152;11.614;2023-02-04T19:16:51;97489.84;;;3.83;73.76
72395;BME280;60384;48.152;11.614;2023-02-04T19:19:56;97485.25;;;3.78;73.88
72395;BME280;60384;48.152;11.614;2023-02-04T19:22:58;97482.28;;;3.74;74.27
72395;BME280;60384;48.152;11.614;2023-02-04T19:26:00;97481.09;;;3.70;74.24
72395;BME280;60384;48.152;11.614;2023-02-04T19:29:40;97488.69;;;3.67;73.91
72395;BME280;60384;48.152;11.614;2023-02-04T19:32:43;97480.19;;;3.65;73.85
72395;BME280;60384;48.152;11.614;2023-02-04T19:35:47;97479.63;;;3.63;73.72
72395;BME280;60384;48.152;11.614;2023-02-04T19:38:51;97479.25;;;3.59;74.23
72395;BME280;60384;48.152;11.614;2023-02-04T19:41:56;97474.66;;;3.55;74.00
72395;BME280;60384;48.152;11.614;2023-02-04T19:45:00;97483.25;;;3.50;74.44
72395;BME280;60384;48.152;11.614;2023-02-04T19:48:14;97481.88;;;3.48;73.90
72395;BME280;60384;48.152;11.614;2023-02-04T19:51:24;97480.72;;;3.44;73.97
72395;BME280;60384;48.152;11.614;2023-02-04T19:54:35;97480.59;;;3.39;73.97
72395;BME280;60384;48.152;11.614;2023-02-04T19:57:37;97479.44;;;3.35;74.00
72395;BME280;60384;48.152;11.614;2023-02-04T20:00:46;97488.81;;;3.30;73.79
72395;BME280;60384;48.152;11.614;2023-02-04T20:03:49;97477.09;;;3.26;74.44
72395;BME280;60384;48.152;11.614;2023-02-04T20:06:51;97484.69;;;3.23;74.03
72395;BME280;60384;48.152;11.614;2023-02-04T20:10:02;97488.00;;;3.18;73.80
72395;BME280;60384;48.152;11.614;2023-02-04T20:13:18;97482.56;;;3.13;73.97
72395;BME280;60384;48.152;11.614;2023-02-04T20:16:35;97483.84;;;3.11;74.52
72395;BME280;60384;48.152;11.614;2023-02-04T20:19:38;97486.91;;;3.08;73.75
72395;BME280;60384;48.152;11.614;2023-02-04T20:22:44;97494.25;;;3.06;73.57
72395;BME280;60384;48.152;11.614;2023-02-04T20:25:47;97495.16;;;3.00;74.07
72395;BME280;60384;48.152;11.614;2023-02-04T20:28:49;97496.38;;;2.97;74.33
72395;BME280;60384;48.152;11.614;2023-02-04T20:31:53;97501.09;;;2.95;74.26
72395;BME280;60384;48.152;11.614;2023-02-04T20:34:57;97504.78;;;2.94;74.38
72395;BME280;60384;48.152;11.614;2023-02-04T20:38:09;97496.03;;;2.94;74.25
72395;BME280;60384;48.152;11.614;2023-02-04T20:41:15;97493.63;;;2.92;74.43
72395;BME280;60384;48.152;11.614;2023-02-04T20:44:22;97498.91;;;2.92;73.76
72395;BME280;60384;48.152;11.614;2023-02-04T20:47:28;97503.63;;;2.90;73.95
72395;BME280;60384;48.152;11.614;2023-02-04T20:50:39;97507.50;;;2.87;74.07
72395;BME280;60384;48.152;11.614;2023-02-04T20:53:44;97497.16;;;2.86;74.11
72395;BME280;60384;48.152;11.614;2023-02-04T20:56:47;97506.88;;;2.85;74.26
72395;BME280;60384;48.152;11.614;2023-02-04T20:59:49;97503.44;;;2.85;74.02
72395;BME280;60384;48.152;11.614;2023-02-04T21:02:56;97515.63;;;2.86;74.10
72395;BME280;60384;48.152;11.614;2023-02-04T21:06:01;97521.69;;;2.86;73.88
72395;BME280;60384;48.152;11.614;2023-02-04T21:09:03;97527.78;;;2.87;74.31
72395;BME280;60384;48.152;11.614;2023-02-04T21:12:09;97539.38;;;2.86;74.21
72395;BME280;60384;48.152;11.614;2023-02-04T21:15:11;97542.81;;;2.86;74.04
72395;BME280;60384;48.152;11.614;2023-02-04T21:18:15;97539.16;;;2.87;73.78
72395;BME280;60384;48.152;11.614;2023-02-04T21:21:16;97530.44;;;2.87;74.15
72395;BME280;60384;48.152;11.614;2023-02-04T21:24:19;97537.31;;;2.88;74.03
72395;BME280;60384;48.152;11.614;2023-02-04T21:27:21;97541.59;;;2.89;74.09
72395;BME280;60384;48.152;11.614;2023-02-04T21:30:23;97544.22;;;2.89;73.85
72395;BME280;60384;48.152;11.614;2023-02-04T21:33:30;97535.91;;;2.85;73.77
72395;BME280;60384;48.152;11.614;2023-02-04T21:36:32;97535.91;;;2.85;74.12
72395;BME280;60384;48.152;11.614;2023-02-04T21:39:34;97542.59;;;2.88;74.25
72395;BME280;60384;48.152;11.614;2023-02-04T21:42:36;97542.59;;;2.88;74.15
72395;BME280;60384;48.152;11.614;2023-02-04T21:45:38;97540.78;;;2.88;74.09
72395;BME280;60384;48.152;11.614;2023-02-04T21:48:41;97545.25;;;2.88;74.06
72395;BME280;60384;48.152;11.614;2023-02-04T21:51:43;97542.38;;;2.89;73.96
72395;BME280;60384;48.152;11.614;2023-02-04T21:54:45;97543.41;;;2.88;73.54
72395;BME280;60384;48.152;11.614;2023-02-04T21:57:48;97534.22;;;2.91;73.81
72395;BME280;60384;48.152;11.614;2023-02-04T22:00:50;97540.56;;;2.90;73.70
72395;BME280;60384;48.152;11.614;2023-02-04T22:03:53;97543.19;;;2.90;73.78
72395;BME280;60384;48.152;11.614;2023-02-04T22:06:55;97536.88;;;2.91;73.62
72395;BME280;60384;48.152;11.614;2023-02-04T22:09:57;97549.03;;;2.92;73.86
72395;BME280;60384;48.152;11.614;2023-02-04T22:12:59;97537.91;;;2.90;73.68
72395;BME280;60384;48.152;11.614;2023-02-04T22:16:01;97546.84;;;2.89;73.76
72395;BME280;60384;48.152;11.614;2023-02-04T22:19:04;97553.97;;;2.88;73.82
72395;BME280;60384;48.152;11.614;2023-02-04T22:22:06;97549.34;;;2.84;73.78
72395;BME280;60384;48.152;11.614;2023-02-04T22:25:08;97558.28;;;2.83;74.04
72395;BME280;60384;48.152;11.614;2023-02-04T22:28:09;97565.41;;;2.82;74.05
72395;BME280;60384;48.152;11.614;2023-02-04T22:31:11;97565.41;;;2.82;74.00
72395;BME280;60384;48.152;11.614;2023-02-04T22:34:15;97568.84;;;2.83;74.17
72395;BME280;60384;48.152;11.614;2023-02-04T22:37:17;97571.28;;;2.84;73.68
72395;BME280;60384;48.152;11.614;2023-02-04T22:40:19;97567.22;;;2.82;73.70
72395;BME280;60384;48.152;11.614;2023-02-04T22:43:21;97560.53;;;2.79;74.19
72395;BME280;60384;48.152;11.614;2023-02-04T22:46:22;97559.16;;;2.77;74.07
72395;BME280;60384;48.152;11.614;2023-02-04T22:49:25;97565.69;;;2.74;74.16
72395;BME280;60384;48.152;11.614;2023-02-04T22:52:27;97556.38;;;2.72;74.15
72395;BME280;60384;48.152;11.614;2023-02-04T22:55:29;97562.91;;;2.69;73.68
72395;BME280;60384;48.152;11.614;2023-02-04T22:58:31;97545.91;;;2.65;74.08
72395;BME280;60384;48.152;11.614;2023-02-04T23:01:33;97554.03;;;2.64;74.08
72395;BME280;60384;48.152;11.614;2023-02-04T23:04:36;97548.97;;;2.62;74.05
72395;BME280;60384;48.152;11.614;2023-02-04T23:07:37;97552.66;;;2.61;73.92
72395;BME280;60384;48.152;11.614;2023-02-04T23:10:39;97546.56;;;2.61;73.58
72395;BME280;60384;48.152;11.614;2023-02-04T23:13:41;97552.88;;;2.60;73.85
72395;BME280;60384;48.152;11.614;2023-02-04T23:16:43;97540.69;;;2.59;73.69
72395;BME280;60384;48.152;11.614;2023-02-04T23:19:47;97547.00;;;2.58;73.89
72395;BME280;60384;48.152;11.614;2023-02-04T23:22:49;97541.72;;;2.58;74.04
72395;BME280;60384;48.152;11.614;2023-02-04T23:25:51;97541.16;;;2.56;73.49
72395;BME280;60384;48.152;11.614;2023-02-04T23:28:53;97539.94;;;2.52;73.96
72395;BME280;60384;48.152;11.614;2023-02-04T23:31:55;97536.75;;;2.49;73.73
72395;BME280;60384;48.152;11.614;2023-02-04T23:34:58;97531.69;;;2.48;73.65
72395;BME280;60384;48.152;11.614;2023-02-04T23:38:00;97532.69;;;2.47;73.92
72395;BME280;60384;48.152;11.614;2023-02-04T23:41:02;97542.91;;;2.43;73.55
72395;BME280;60384;48.152;11.614;2023-02-04T23:44:05;97534.59;;;2.40;73.99
72395;BME280;60384;48.152;11.614;2023-02-04T23:47:06;97542.16;;;2.36;73.90
72395;BME280;60384;48.152;11.614;2023-02-04T23:50:10;97541.53;;;2.34;73.90
72395;BME280;60384;48.152;11.614;2023-02-04T23:53:12;97535.56;;;2.27;74.03
72395;BME280;60384;48.152;11.614;2023-02-04T23:56:13;97540.22;;;2.25;73.99
72395;BME280;60384;48.152;11.614;2023-02-04T23:59:15;97544.31;;;2.21;73.91
